createdAt,value
2023-03-26T00:02:14.706Z,71.53
2023-03-26T00:05:57.221Z,71.43
2023-03-26T00:09:47.657Z,71.19
2023-03-26T00:29:06.642Z,70.78
2023-03-26T00:32:56.236Z,70.67
2023-03-26T00:36:45.313Z,70.58
2023-03-26T00:40:34.860Z,70.64
2023-03-26T00:44:26.780Z,70.55
2023-03-26T00:48:15.828Z,70.42
2023-03-26T00:52:04.995Z,70.31
2023-03-26T00:55:54.357Z,70.38
2023-03-26T00:59:43.548Z,70.41
2023-03-26T01:03:32.804Z,70.29
2023-03-26T01:07:24.647Z,70.25
2023-03-26T01:11:13.744Z,70.14
2023-03-26T01:15:03.679Z,70.25
2023-03-26T01:18:54.524Z,70.27
2023-03-26T01:22:44.415Z,70.41
2023-03-26T01:30:35.203Z,70.29
2023-03-26T01:34:27.083Z,70.19
2023-03-26T01:38:23.273Z,70.13
2023-03-26T01:42:22.772Z,70.12
2023-03-26T01:50:39.419Z,70.03
2023-03-26T01:54:27.113Z,69.95
2023-03-26T01:58:17.307Z,69.89
2023-03-26T02:01:50.533Z,69.95
2023-03-26T02:05:36.809Z,69.95
2023-03-26T02:17:32.166Z,70.11
2023-03-26T02:21:21.210Z,70.08
2023-03-26T02:25:10.322Z,70.06
2023-03-26T02:32:55.357Z,69.82
2023-03-26T02:36:45.619Z,69.86
2023-03-26T02:40:34.648Z,69.70
2023-03-26T02:44:23.833Z,69.52
2023-03-26T03:00:13.340Z,68.63
2023-03-26T03:04:08.327Z,68.13
2023-03-26T03:07:57.795Z,68.18
2023-03-26T03:11:49.428Z,67.91
2023-03-26T03:15:31.507Z,67.73
2023-03-26T03:19:01.100Z,67.61
2023-03-26T03:22:50.310Z,67.77
2023-03-26T03:27:06.726Z,67.80
2023-03-26T03:30:55.758Z,67.77
2023-03-26T03:34:44.888Z,67.96
2023-03-26T03:38:34.022Z,67.87
2023-03-26T03:42:23.150Z,67.83
2023-03-26T03:46:12.410Z,68.07
2023-03-26T03:50:07.525Z,67.98
2023-03-26T03:53:56.519Z,67.91
2023-03-26T04:10:02.049Z,67.78
2023-03-26T04:13:49.787Z,67.54
2023-03-26T04:17:37.453Z,67.46
2023-03-26T04:21:25.054Z,67.59
2023-03-26T04:25:12.520Z,67.79
2023-03-26T04:29:06.168Z,68.02
2023-03-26T04:33:03.482Z,68.77
2023-03-26T04:48:40.463Z,69.61
2023-03-26T04:52:20.774Z,69.09
2023-03-26T04:56:09.735Z,68.92
2023-03-26T04:59:56.123Z,68.71
2023-03-26T05:03:32.703Z,68.53
2023-03-26T05:06:59.461Z,68.25
2023-03-26T05:10:05.178Z,68.01
2023-03-26T05:13:21.578Z,68.25
2023-03-26T05:17:01.959Z,67.92
2023-03-26T05:20:51.672Z,67.86
2023-03-26T05:24:33.827Z,67.34
2023-03-26T05:28:07.350Z,67.21
2023-03-26T05:32:01.629Z,67.05
2023-03-26T05:35:50.880Z,67.05
2023-03-26T05:39:22.923Z,66.60
2023-03-26T05:42:50.488Z,66.65
2023-03-26T05:46:38.115Z,66.61
2023-03-26T05:49:49.489Z,66.41
2023-03-26T05:53:31.229Z,66.27
2023-03-26T05:57:01.452Z,66.37
2023-03-26T06:00:49.317Z,66.19
2023-03-26T06:04:14.081Z,66.37
2023-03-26T06:08:02.789Z,67.18
2023-03-26T06:11:05.796Z,67.77
2023-03-26T06:13:57.037Z,67.85
2023-03-26T06:17:08.959Z,67.84
2023-03-26T06:20:30.555Z,67.63
2023-03-26T06:23:52.820Z,67.37
2023-03-26T06:31:34.341Z,66.53
2023-03-26T06:35:15.084Z,66.53
2023-03-26T06:38:37.694Z,66.52
2023-03-26T06:41:35.096Z,66.20
2023-03-26T06:44:23.858Z,65.63
2023-03-26T06:47:33.820Z,65.44
2023-03-26T06:50:34.037Z,65.23
2023-03-26T06:54:29.052Z,65.17
2023-03-26T06:58:10.657Z,65.45
2023-03-26T07:01:38.111Z,65.21
2023-03-26T07:05:15.944Z,64.70
2023-03-26T07:08:51.685Z,64.77
2023-03-26T07:12:46.906Z,64.75
2023-03-26T07:16:34.785Z,63.64
2023-03-26T07:20:00.811Z,63.06
2023-03-26T07:23:30.065Z,62.97
2023-03-26T07:27:44.228Z,62.90
2023-03-26T07:31:30.015Z,62.23
2023-03-26T07:35:31.574Z,62.45
2023-03-26T08:02:54.573Z,59.22
2023-03-26T08:07:17.105Z,60.29
2023-03-26T08:11:04.686Z,59.94
2023-03-26T08:14:57.719Z,58.70
2023-03-26T08:30:07.736Z,59.85
2023-03-26T08:33:59.542Z,60.08
2023-03-26T09:00:16.273Z,57.94
2023-03-26T09:04:19.065Z,57.81
2023-03-26T09:08:11.393Z,58.48
2023-03-26T09:11:43.083Z,57.66
2023-03-26T09:14:23.151Z,56.88
2023-03-26T09:18:14.581Z,56.74
2023-03-26T09:30:37.990Z,58.40
2023-03-26T09:34:34.629Z,58.57
2023-03-26T09:38:40.100Z,56.65
2023-03-26T09:42:37.231Z,55.51
2023-03-26T09:45:50.908Z,54.81
2023-03-26T10:04:43.442Z,49.56
2023-03-26T10:08:36.859Z,50.39
2023-03-26T10:12:46.980Z,50.15
2023-03-26T10:16:49.596Z,51.08
2023-03-26T10:36:40.647Z,50.59
2023-03-26T10:40:50.187Z,48.46
2023-03-26T10:44:10.530Z,46.83
2023-03-26T10:47:55.247Z,44.84
2023-03-26T10:51:44.270Z,46.15
2023-03-26T11:17:55.257Z,43.03
2023-03-26T11:22:05.392Z,42.51
2023-03-26T11:25:52.811Z,41.44
2023-03-26T11:29:03.119Z,43.46
2023-03-26T11:33:04.016Z,45.43
2023-03-26T11:48:11.528Z,47.01
2023-03-26T11:52:11.690Z,48.06
2023-03-26T11:55:24.045Z,42.61
2023-03-26T11:59:22.383Z,42.31
2023-03-26T12:06:08.096Z,45.35
2023-03-26T12:21:33.216Z,47.49
2023-03-26T12:25:28.389Z,47.46
2023-03-26T12:28:37.089Z,45.88
2023-03-26T12:31:45.766Z,45.33
2023-03-26T12:35:12.113Z,39.82
2023-03-26T12:38:12.991Z,38.07
2023-03-26T12:53:24.510Z,30.18
2023-03-26T12:57:12.022Z,30.14
2023-03-26T13:00:23.644Z,30.88
2023-03-26T13:03:42.024Z,30.44
2023-03-26T13:07:02.158Z,30.67
2023-03-26T13:11:06.861Z,31.81
2023-03-26T13:15:02.918Z,30.84
2023-03-26T13:48:48.189Z,36.41
2023-03-26T13:52:24.699Z,37.58
2023-03-26T13:56:16.750Z,40.01
2023-03-26T14:12:00.500Z,42.17
2023-03-26T14:15:40.754Z,42.71
2023-03-26T14:19:37.440Z,42.56
2023-03-26T14:23:03.361Z,43.08
2023-03-26T14:31:42.987Z,44.47
2023-03-26T14:35:31.636Z,45.22
2023-03-26T14:39:10.386Z,45.23
2023-03-26T14:43:09.413Z,45.60
2023-03-26T14:46:46.488Z,45.56
2023-03-26T14:49:41.583Z,45.28
2023-03-26T14:53:38.224Z,45.66
2023-03-26T15:16:04.487Z,47.28
2023-03-26T15:19:51.680Z,47.30
2023-03-26T15:23:48.045Z,48.27
2023-03-26T15:27:27.068Z,48.59
2023-03-26T15:30:56.761Z,48.49
2023-03-26T15:42:14.388Z,48.67
2023-03-26T15:46:23.179Z,48.80
2023-03-26T15:49:55.149Z,48.94
2023-03-26T15:53:54.475Z,49.27
2023-03-26T16:09:52.858Z,49.30
2023-03-26T16:13:52.722Z,49.07
2023-03-26T16:17:21.904Z,49.02
2023-03-26T16:20:47.310Z,49.18
2023-03-26T16:24:32.495Z,49.49
2023-03-26T17:17:33.152Z,51.14
2023-03-26T17:21:24.864Z,52.33
2023-03-26T17:25:02.869Z,53.39
2023-03-26T17:40:34.462Z,52.85
2023-03-26T17:44:19.451Z,53.31
2023-03-26T17:48:00.643Z,53.80
2023-03-26T17:51:35.205Z,53.97
2023-03-26T17:59:20.924Z,55.40
2023-03-26T18:02:53.590Z,55.77
2023-03-26T18:06:46.222Z,56.38
2023-03-26T18:47:36.589Z,59.56
2023-03-26T18:50:14.659Z,60.76
2023-03-26T18:53:23.596Z,60.57
2023-03-26T18:56:40.340Z,62.38
2023-03-26T19:00:09.490Z,64.13
2023-03-26T19:03:45.672Z,62.83
2023-03-26T19:06:21.511Z,65.37
2023-03-26T19:09:31.628Z,65.86
2023-03-26T19:12:53.892Z,66.30
2023-03-26T19:16:43.830Z,67.80
2023-03-26T19:20:15.847Z,69.77
2023-03-26T19:23:53.088Z,70.69
2023-03-26T19:49:01.913Z,72.74
2023-03-26T19:52:46.590Z,73.83
2023-03-26T19:56:37.099Z,75.29
2023-03-26T20:00:09.109Z,75.67
2023-03-26T20:16:05.619Z,75.03
2023-03-26T20:19:04.925Z,74.74
2023-03-26T20:21:58.665Z,74.82
2023-03-26T20:25:30.173Z,75.32
2023-03-26T20:29:20.344Z,74.63
2023-03-26T20:33:18.988Z,74.56
2023-03-26T20:37:09.302Z,74.80
2023-03-26T20:40:58.428Z,75.39
2023-03-26T20:44:47.317Z,75.83
2023-03-26T20:48:35.126Z,76.51
2023-03-26T20:52:07.633Z,75.85
2023-03-26T20:55:58.635Z,74.55
2023-03-26T21:19:14.998Z,78.35
2023-03-26T21:23:10.088Z,79.08
2023-03-26T21:27:07.952Z,78.31
2023-03-26T21:46:36.759Z,80.86
2023-03-26T21:50:26.046Z,81.29
2023-03-26T21:54:15.225Z,80.50
2023-03-26T21:58:19.324Z,80.19
2023-03-26T22:02:14.652Z,79.34
2023-03-26T22:06:15.944Z,82.12
2023-03-26T22:25:27.814Z,81.70
2023-03-26T22:29:17.048Z,82.61
2023-03-26T22:32:57.222Z,82.16
2023-03-26T22:36:26.058Z,81.19
2023-03-26T22:40:15.057Z,81.38
2023-03-26T22:44:16.948Z,81.55
2023-03-26T22:48:09.438Z,81.68
2023-03-26T22:51:58.450Z,81.31
2023-03-26T22:55:49.519Z,81.43
2023-03-26T22:59:39.874Z,81.07
2023-03-26T23:03:35.032Z,80.93
2023-03-26T23:07:25.663Z,82.41
2023-03-26T23:11:14.780Z,82.61
2023-03-26T23:15:03.809Z,83.02
2023-03-26T23:18:52.879Z,82.67
2023-03-26T23:22:34.468Z,82.26
2023-03-26T23:26:23.808Z,82.93
2023-03-26T23:30:12.813Z,82.65
2023-03-26T23:34:02.111Z,81.57
2023-03-26T23:37:51.209Z,81.56
2023-03-26T23:41:36.101Z,82.12
2023-03-26T23:45:25.528Z,82.43
2023-03-26T23:49:16.441Z,82.45
2023-03-26T23:53:02.694Z,81.63
2023-03-26T23:56:53.364Z,82.72
